Summ, South Carolina
Current Conditions -  °F | °C
As of 2:15 PM on Tuesday 27 Jan 2015 (Local Time) from KDYB Reporting Station
Broken Clouds Broken Clouds  
Wind Chill: 50°   Ceiling: 9000
Heat Index: 50°   Visibility: 10mi
Dew Point: 27°   Wind: 12mph
Humidity: 40%   Direction: 340°NNW
Pressure: 29.87"   Gusts: 18mph
Location:  32.9158°N, 80.2679°W
Report Text: KDYB 271915Z AUTO 34010G16KT 10SM SCT085 BKN090 10/M03 A2987 RMK AO1
Loading
Personal Weather Stations






























Interactive Weather Map New forecast layout! Learn more

10-Day Weather Forecast

Advertisements
Track Severe Weather on mobile